»·PEaware :: N2245W KSNA-KBUR

N2245W :: KSNA-KBUR

FLIGHT INFORMATION

Flight Status: Arrived
Operator: Privately registered:
United States
More flights under this callsign
Pilot: Josh K. (32537)
Aircraft: CESSNA 172 SKYHAWK
(C172)
More flights by this aircraft type
Origin: KSNA John Wayne-Orange Co
United States
Destination: KBUR Bob Hope-Burbank
United States
More flights between these airports :: More routes between these airports
Route: +SLI V23 POPPR SMO125 SMO SMO311 SILEX
File this flight plan on PilotEdge
Remarks: Tec route
Altitude:
(Current/Filed)
4,000ft
Speed:
(Current/Filed)
115kts
Departed: 01-Dec-20 08:22 PM
Arrived: 01-Dec-20 09:01 PM
Distance/Time
Traveled:
40nm/0:39
Distance/Time
To Go:
Arrived

Flight Plot

Page will automatically refresh every two minutes.


Map Options




Map Legend


Flown Route
Filed Route
Departure Airport
Arrival Airport
Navaid (VOR, NDB)
Fix

Horizontal Profiles

Position Reports

Time Latitude Longitude Heading Altitude Ground
Speed
01-Dec-20 20:08 33.681421 -117.860839 118 60ft 0kts
01-Dec-20 20:09 33.681421 -117.860839 118 60ft 0kts
01-Dec-20 20:10 33.681425 -117.860848 118 60ft 0kts
01-Dec-20 20:11 33.681421 -117.860839 118 60ft 0kts
01-Dec-20 20:12 33.681421 -117.860839 118 60ft 0kts
01-Dec-20 20:13 33.681421 -117.860839 118 60ft 0kts
01-Dec-20 20:14 33.681421 -117.860839 118 60ft 0kts
01-Dec-20 20:16 33.681421 -117.860839 118 60ft 0kts
01-Dec-20 20:17 33.681421 -117.860839 118 60ft 0kts
01-Dec-20 20:18 33.681421 -117.860839 118 60ft 0kts
01-Dec-20 20:19 33.681426 -117.860804 13 60ft 1kts
01-Dec-20 20:20 33.679834 -117.863263 273 60ft 0kts
01-Dec-20 20:21 33.679834 -117.863263 273 60ft 0kts
01-Dec-20 20:22 33.673989 -117.868011 207 155ft 86kts
01-Dec-20 20:23 33.653929 -117.888547 228 1048ft 98kts
01-Dec-20 20:24 33.635907 -117.914289 231 1824ft 101kts
01-Dec-20 20:25 33.617329 -117.939929 225 2613ft 101kts
01-Dec-20 20:26 33.614156 -117.971319 296 3331ft 104kts
01-Dec-20 20:27 33.631605 -117.999088 311 3827ft 108kts
01-Dec-20 20:28 33.651195 -118.025563 311 3968ft 107kts
01-Dec-20 20:29 33.670945 -118.051975 311 3990ft 106kts
01-Dec-20 20:30 33.690723 -118.078456 311 3958ft 106kts
01-Dec-20 20:31 33.710449 -118.104897 311 3927ft 106kts
01-Dec-20 20:32 33.730172 -118.131367 311 3898ft 106kts
01-Dec-20 20:33 33.749852 -118.157808 311 3872ft 106kts
01-Dec-20 20:34 33.769577 -118.184342 311 3869ft 106kts
01-Dec-20 20:34 33.785955 -118.206397 311 3878ft 106kts
01-Dec-20 20:36 33.808582 -118.237643 310 3892ft 106kts
01-Dec-20 20:36 33.824646 -118.260107 310 3902ft 106kts
01-Dec-20 20:38 33.847827 -118.290571 318 3915ft 106kts
01-Dec-20 20:38 33.866560 -118.309851 319 3923ft 106kts
01-Dec-20 20:40 33.892839 -118.336714 319 3936ft 106kts
01-Dec-20 20:40 33.911579 -118.355893 319 3938ft 106kts
01-Dec-20 20:41 33.934058 -118.378925 319 3942ft 106kts
01-Dec-20 20:42 33.956537 -118.401984 319 3945ft 106kts
01-Dec-20 20:43 33.979017 -118.425073 319 3947ft 106kts
01-Dec-20 20:44 34.001495 -118.448187 319 3950ft 106kts
01-Dec-20 20:45 34.024714 -118.470257 322 3951ft 106kts
01-Dec-20 20:46 34.048006 -118.492072 322 3955ft 106kts
01-Dec-20 20:47 34.071320 -118.513934 322 3959ft 106kts
01-Dec-20 20:48 34.094561 -118.535755 322 3963ft 106kts
01-Dec-20 20:49 34.117893 -118.557687 322 3967ft 106kts
01-Dec-20 20:50 34.141074 -118.579501 322 3891ft 105kts
01-Dec-20 20:51 34.164357 -118.601433 322 3569ft 105kts
01-Dec-20 20:52 34.189658 -118.610873 48 3100ft 108kts
01-Dec-20 20:53 34.202022 -118.579780 92 3111ft 107kts
01-Dec-20 20:54 34.201623 -118.545096 89 3302ft 102kts
01-Dec-20 20:55 34.202154 -118.509941 93 3403ft 104kts
01-Dec-20 20:56 34.200869 -118.478703 97 3182ft 104kts
01-Dec-20 20:57 34.199141 -118.443655 92 2134ft 103kts
01-Dec-20 20:58 34.198595 -118.408743 88 1286ft 105kts
01-Dec-20 20:59 34.198066 -118.380053 90 897ft 68kts
01-Dec-20 21:00 34.197766 -118.361462 92 717ft 22kts

Navigation Log

Ident Type
Flight plan parsing failed, navigation log unavailable